Artesia Wells, TX

8:54 AM CDT on September 16, 2014 (GMT -0500)
Cotulla-La Salle County | Change Station
CLOSE
Current Station
Airport
Location: Cotulla,
Elevation: 476 ft
Nearby Weather Stations
Active Advisory: Special Statement

Elev 476 ft 28.46 °N, 99.22 °W | Updated 1 hour ago

Clear
Clear
76 °F
Feels Like 76 °F
N
6
Wind Variable Wind from ENE

Today
High -- | Low -- °F
--% Chance of Precip.
Yesterday
High -- | Low -- °F
Precip. -- in
7:22 AM 7:40 PM
Last Quarter, 45% visible
Pressure 30.03 in
Visibility 7.0 miles
Clouds Clear
Dew Point 70 °F
Humidity 82%
Rainfall 0.00 in
Snow Depth Not available.
UV 0 out of 12
Pollen 10.00 out of 12
Air Quality Not available.
Flu Activity Not available.
METAR KCOT 161253Z AUTO 06005KT 7SM CLR 24/21 A3005 RMK AO2 SLP168 T02440211

More Conditions Fewer Conditions

Pressure 30.03 in
Visibility 7.0 miles
Clouds Clear
Dew Point 70 °F
Humidity 82%
Rainfall 0.00 in
Snow Depth Not available.
UV 0 out of 12
Pollen 10.00 out of 12
Air Quality Not available.
Flu Activity Not available.
METAR KCOT 161253Z AUTO 06005KT 7SM CLR 24/21 A3005 RMK AO2 SLP168 T02440211

More Conditions Fewer Conditions

Nowcast | as of 6:59 am CDT on September 16, 2014

Through 9 am CDT...isolated to scattered showers and thunderstorms will continue to affect portions of south Texas and the middle Texas coastal waters. Moderate to occasionally heavy rainfall can be expected along with an occasional lightning strike or two. Storm activity is expected to increase in coverage and intensity through the morning. Rainfall amounts over land will average up to one quarter...with isolated amounts reaching one half to one inch.

×

10-Day Weather Forecast

Almanac

Astronomy

Sep. 16, 2014 Rise Set
Actual Time 7:22 AM CDT 7:40 PM CDT
Civil Twilight 6:59 AM CDT 8:04 PM CDT
Nautical Twilight 6:31 AM CDT 8:31 PM CDT
Astronomical Twilight 6:03 AM CDT 8:59 PM CDT
Moon 12:54 AM CDT 2:44 PM CDT
Length of Visible Light 13h 05m
Length of Day
12h 17m
Tomorrow will be 1m 39s shorter.
Last Quarter, 45% of the Moon is Illuminated
Today
Last Quarter
Sep 24
New
Oct 1
First Quarter
Oct 8
Full
Oct 15
Last Quarter

Today's Extremes

State Highs State Lows

Community

WunderPhotos

Upload Photos

1,753,774 photos uploaded!

Nearby

Snow Depth

Station Depth Elevation
No new snow has been reported.

Earthquake Activity

City Distance Mag. Time & Date
No recent earthquake activity has been reported nearby.
Minimum magnitude displayed is 2.5.

Coastal Water Temperatures

Place Temperature
No Stations Reporting

Nearby Weather Stations